sensor_id;sensor_type;location;lat;lon;timestamp;temperature;humidity
2190;DHT22;1101;51.056;7.262;2022-12-18T00:01:24;-5.50;99.90
2190;DHT22;1101;51.056;7.262;2022-12-18T00:03:53;-5.50;99.90
2190;DHT22;1101;51.056;7.262;2022-12-18T00:06:23;-5.50;99.90
2190;DHT22;1101;51.056;7.262;2022-12-18T00:08:51;-5.50;99.90
2190;DHT22;1101;51.056;7.262;2022-12-18T00:11:20;-5.50;99.90
2190;DHT22;1101;51.056;7.262;2022-12-18T00:13:49;-5.50;99.90
2190;DHT22;1101;51.056;7.262;2022-12-18T00:16:18;-5.50;99.90
2190;DHT22;1101;51.056;7.262;2022-12-18T00:18:49;-5.50;99.90
2190;DHT22;1101;51.056;7.262;2022-12-18T00:21:18;-5.50;99.90
2190;DHT22;1101;51.056;7.262;2022-12-18T00:23:47;-5.40;99.90
2190;DHT22;1101;51.056;7.262;2022-12-18T00:26:17;-5.40;99.90
2190;DHT22;1101;51.056;7.262;2022-12-18T00:28:46;-5.40;99.90
2190;DHT22;1101;51.056;7.262;2022-12-18T00:31:16;-5.40;99.90
2190;DHT22;1101;51.056;7.262;2022-12-18T00:33:45;-5.40;99.90
2190;DHT22;1101;51.056;7.262;2022-12-18T00:36:18;-5.30;99.90
2190;DHT22;1101;51.056;7.262;2022-12-18T00:38:47;-5.30;99.90
2190;DHT22;1101;51.056;7.262;2022-12-18T00:41:16;-5.30;99.90
2190;DHT22;1101;51.056;7.262;2022-12-18T00:44:06;-5.20;99.90
2190;DHT22;1101;51.056;7.262;2022-12-18T00:46:33;-5.30;99.90
2190;DHT22;1101;51.056;7.262;2022-12-18T00:49:01;-5.30;99.90
2190;DHT22;1101;51.056;7.262;2022-12-18T00:51:30;-5.30;99.90
2190;DHT22;1101;51.056;7.262;2022-12-18T00:53:58;-5.30;99.90
2190;DHT22;1101;51.056;7.262;2022-12-18T00:56:26;-5.20;99.90
2190;DHT22;1101;51.056;7.262;2022-12-18T00:58:54;-5.20;99.90
2190;DHT22;1101;51.056;7.262;2022-12-18T01:01:21;-5.20;99.90
2190;DHT22;1101;51.056;7.262;2022-12-18T01:03:49;-5.20;99.90
2190;DHT22;1101;51.056;7.262;2022-12-18T01:06:17;-5.20;99.90
2190;DHT22;1101;51.056;7.262;2022-12-18T01:08:46;-5.20;99.90
2190;DHT22;1101;51.056;7.262;2022-12-18T01:11:16;-5.20;99.90
2190;DHT22;1101;51.056;7.262;2022-12-18T01:13:44;-5.20;99.90
2190;DHT22;1101;51.056;7.262;2022-12-18T01:16:12;-5.20;99.90
2190;DHT22;1101;51.056;7.262;2022-12-18T01:18:41;-5.20;99.90
2190;DHT22;1101;51.056;7.262;2022-12-18T01:21:11;-5.20;99.90
2190;DHT22;1101;51.056;7.262;2022-12-18T01:23:38;-5.20;99.90
2190;DHT22;1101;51.056;7.262;2022-12-18T01:26:11;-5.20;99.90
2190;DHT22;1101;51.056;7.262;2022-12-18T01:28:39;-5.20;99.90
2190;DHT22;1101;51.056;7.262;2022-12-18T01:31:16;-5.20;99.90
2190;DHT22;1101;51.056;7.262;2022-12-18T01:33:45;-5.30;99.90
2190;DHT22;1101;51.056;7.262;2022-12-18T01:36:17;-5.30;99.90
2190;DHT22;1101;51.056;7.262;2022-12-18T01:38:46;-5.20;99.90
2190;DHT22;1101;51.056;7.262;2022-12-18T01:41:17;-5.20;99.90
2190;DHT22;1101;51.056;7.262;2022-12-18T01:43:49;-5.20;99.90
2190;DHT22;1101;51.056;7.262;2022-12-18T01:46:18;-5.20;99.90
2190;DHT22;1101;51.056;7.262;2022-12-18T01:48:48;-5.20;99.90
2190;DHT22;1101;51.056;7.262;2022-12-18T01:51:18;-5.20;99.90
2190;DHT22;1101;51.056;7.262;2022-12-18T01:53:46;-5.20;99.90
2190;DHT22;1101;51.056;7.262;2022-12-18T01:56:17;-5.10;99.90
2190;DHT22;1101;51.056;7.262;2022-12-18T01:58:51;-5.10;99.90
2190;DHT22;1101;51.056;7.262;2022-12-18T02:01:23;-5.10;99.90
2190;DHT22;1101;51.056;7.262;2022-12-18T02:03:51;-5.10;99.90
2190;DHT22;1101;51.056;7.262;2022-12-18T02:06:23;-5.10;99.90
2190;DHT22;1101;51.056;7.262;2022-12-18T02:09:03;-5.10;99.90
2190;DHT22;1101;51.056;7.262;2022-12-18T02:11:40;-5.10;99.90
2190;DHT22;1101;51.056;7.262;2022-12-18T02:14:18;-5.10;99.90
2190;DHT22;1101;51.056;7.262;2022-12-18T02:16:53;-5.10;99.90
2190;DHT22;1101;51.056;7.262;2022-12-18T02:19:39;-5.10;99.90
2190;DHT22;1101;51.056;7.262;2022-12-18T02:22:22;-5.10;99.90
2190;DHT22;1101;51.056;7.262;2022-12-18T02:25:00;-5.10;99.90
2190;DHT22;1101;51.056;7.262;2022-12-18T02:27:32;-5.10;99.90
2190;DHT22;1101;51.056;7.262;2022-12-18T02:30:02;-5.00;99.90
2190;DHT22;1101;51.056;7.262;2022-12-18T02:32:32;-5.10;99.90
2190;DHT22;1101;51.056;7.262;2022-12-18T02:35:03;-5.10;99.90
2190;DHT22;1101;51.056;7.262;2022-12-18T02:37:32;-5.10;99.90
2190;DHT22;1101;51.056;7.262;2022-12-18T02:40:04;-5.10;99.90
2190;DHT22;1101;51.056;7.262;2022-12-18T02:42:33;-5.10;99.90
2190;DHT22;1101;51.056;7.262;2022-12-18T02:45:01;-5.10;99.90
2190;DHT22;1101;51.056;7.262;2022-12-18T02:47:31;-5.10;99.90
2190;DHT22;1101;51.056;7.262;2022-12-18T02:50:07;-5.10;99.90
2190;DHT22;1101;51.056;7.262;2022-12-18T02:52:41;-5.10;99.90
2190;DHT22;1101;51.056;7.262;2022-12-18T02:55:18;-5.10;99.90
2190;DHT22;1101;51.056;7.262;2022-12-18T02:57:51;-5.10;99.90
2190;DHT22;1101;51.056;7.262;2022-12-18T03:00:23;-5.20;99.90
2190;DHT22;1101;51.056;7.262;2022-12-18T03:02:54;-5.20;99.90
2190;DHT22;1101;51.056;7.262;2022-12-18T03:05:30;-5.20;99.90
2190;DHT22;1101;51.056;7.262;2022-12-18T03:08:03;-5.20;99.90
2190;DHT22;1101;51.056;7.262;2022-12-18T03:10:35;-5.20;99.90
2190;DHT22;1101;51.056;7.262;2022-12-18T03:13:08;-5.20;99.90
2190;DHT22;1101;51.056;7.262;2022-12-18T03:15:38;-5.10;99.90
2190;DHT22;1101;51.056;7.262;2022-12-18T03:18:12;-5.10;99.90
2190;DHT22;1101;51.056;7.262;2022-12-18T03:20:44;-5.10;99.90
2190;DHT22;1101;51.056;7.262;2022-12-18T03:23:16;-5.10;99.90
2190;DHT22;1101;51.056;7.262;2022-12-18T03:25:52;-5.00;99.90
2190;DHT22;1101;51.056;7.262;2022-12-18T03:28:23;-5.10;99.90
2190;DHT22;1101;51.056;7.262;2022-12-18T03:30:55;-5.00;99.90
2190;DHT22;1101;51.056;7.262;2022-12-18T03:33:26;-5.00;99.90
2190;DHT22;1101;51.056;7.262;2022-12-18T03:35:55;-5.00;99.90
2190;DHT22;1101;51.056;7.262;2022-12-18T03:38:23;-5.00;99.90
2190;DHT22;1101;51.056;7.262;2022-12-18T03:40:58;-5.00;99.90
2190;DHT22;1101;51.056;7.262;2022-12-18T03:43:37;-5.00;99.90
2190;DHT22;1101;51.056;7.262;2022-12-18T03:46:15;-4.90;99.90
2190;DHT22;1101;51.056;7.262;2022-12-18T03:48:47;-5.00;99.90
2190;DHT22;1101;51.056;7.262;2022-12-18T03:51:19;-5.00;99.90
2190;DHT22;1101;51.056;7.262;2022-12-18T03:53:53;-4.90;99.90
2190;DHT22;1101;51.056;7.262;2022-12-18T03:56:22;-4.90;99.90
2190;DHT22;1101;51.056;7.262;2022-12-18T03:58:54;-4.90;99.90
2190;DHT22;1101;51.056;7.262;2022-12-18T04:01:25;-4.90;99.90
2190;DHT22;1101;51.056;7.262;2022-12-18T04:03:56;-4.90;99.90
2190;DHT22;1101;51.056;7.262;2022-12-18T04:06:26;-4.90;99.90
2190;DHT22;1101;51.056;7.262;2022-12-18T04:08:54;-4.90;99.90
2190;DHT22;1101;51.056;7.262;2022-12-18T04:11:24;-4.90;99.90
2190;DHT22;1101;51.056;7.262;2022-12-18T04:13:56;-4.80;99.90
2190;DHT22;1101;51.056;7.262;2022-12-18T04:16:24;-4.80;99.90
2190;DHT22;1101;51.056;7.262;2022-12-18T04:18:52;-4.80;99.90
2190;DHT22;1101;51.056;7.262;2022-12-18T04:21:20;-4.80;99.90
2190;DHT22;1101;51.056;7.262;2022-12-18T04:23:49;-4.80;99.90
2190;DHT22;1101;51.056;7.262;2022-12-18T04:26:17;-4.80;99.90
2190;DHT22;1101;51.056;7.262;2022-12-18T04:28:44;-4.80;99.90
2190;DHT22;1101;51.056;7.262;2022-12-18T04:31:13;-4.80;99.90
2190;DHT22;1101;51.056;7.262;2022-12-18T04:33:41;-4.70;99.90
2190;DHT22;1101;51.056;7.262;2022-12-18T04:36:09;-4.80;99.90
2190;DHT22;1101;51.056;7.262;2022-12-18T04:38:38;-4.80;99.90
2190;DHT22;1101;51.056;7.262;2022-12-18T04:41:06;-4.80;99.90
2190;DHT22;1101;51.056;7.262;2022-12-18T04:43:34;-4.80;99.90
2190;DHT22;1101;51.056;7.262;2022-12-18T04:46:03;-4.80;99.90
2190;DHT22;1101;51.056;7.262;2022-12-18T04:48:33;-4.80;99.90
2190;DHT22;1101;51.056;7.262;2022-12-18T04:51:01;-4.80;99.90
2190;DHT22;1101;51.056;7.262;2022-12-18T04:53:28;-4.80;99.90
2190;DHT22;1101;51.056;7.262;2022-12-18T04:56:04;-4.80;99.90
2190;DHT22;1101;51.056;7.262;2022-12-18T04:58:32;-4.80;99.90
2190;DHT22;1101;51.056;7.262;2022-12-18T05:01:00;-4.90;99.90
2190;DHT22;1101;51.056;7.262;2022-12-18T05:03:28;-4.90;99.90
2190;DHT22;1101;51.056;7.262;2022-12-18T05:05:57;-4.90;99.90
2190;DHT22;1101;51.056;7.262;2022-12-18T05:08:25;-4.90;99.90
2190;DHT22;1101;51.056;7.262;2022-12-18T05:10:58;-4.90;99.90
2190;DHT22;1101;51.056;7.262;2022-12-18T05:13:27;-4.90;99.90
2190;DHT22;1101;51.056;7.262;2022-12-18T05:15:55;-4.90;99.90
2190;DHT22;1101;51.056;7.262;2022-12-18T05:18:23;-4.90;99.90
2190;DHT22;1101;51.056;7.262;2022-12-18T05:20:52;-4.90;99.90
2190;DHT22;1101;51.056;7.262;2022-12-18T05:23:22;-4.90;99.90
2190;DHT22;1101;51.056;7.262;2022-12-18T05:25:51;-4.90;99.90
2190;DHT22;1101;51.056;7.262;2022-12-18T05:28:20;-4.90;99.90
2190;DHT22;1101;51.056;7.262;2022-12-18T05:30:49;-4.90;99.90
2190;DHT22;1101;51.056;7.262;2022-12-18T05:33:17;-4.90;99.90
2190;DHT22;1101;51.056;7.262;2022-12-18T05:35:50;-4.80;99.90
2190;DHT22;1101;51.056;7.262;2022-12-18T05:38:18;-4.80;99.90
2190;DHT22;1101;51.056;7.262;2022-12-18T05:40:47;-4.80;99.90
2190;DHT22;1101;51.056;7.262;2022-12-18T05:43:15;-4.80;99.90
2190;DHT22;1101;51.056;7.262;2022-12-18T05:45:47;-4.70;99.90
2190;DHT22;1101;51.056;7.262;2022-12-18T05:48:16;-4.70;99.90
2190;DHT22;1101;51.056;7.262;2022-12-18T05:50:45;-4.70;99.90
2190;DHT22;1101;51.056;7.262;2022-12-18T05:53:14;-4.60;99.90
2190;DHT22;1101;51.056;7.262;2022-12-18T05:55:43;-4.60;99.90
2190;DHT22;1101;51.056;7.262;2022-12-18T05:58:13;-4.60;99.90
2190;DHT22;1101;51.056;7.262;2022-12-18T06:00:43;-4.60;99.90
2190;DHT22;1101;51.056;7.262;2022-12-18T06:03:12;-4.60;99.90
2190;DHT22;1101;51.056;7.262;2022-12-18T06:05:42;-4.50;99.90
2190;DHT22;1101;51.056;7.262;2022-12-18T06:08:10;-4.60;99.90
2190;DHT22;1101;51.056;7.262;2022-12-18T06:10:39;-4.60;99.90
2190;DHT22;1101;51.056;7.262;2022-12-18T06:13:07;-4.60;99.90
2190;DHT22;1101;51.056;7.262;2022-12-18T06:15:37;-4.50;99.90
2190;DHT22;1101;51.056;7.262;2022-12-18T06:18:05;-4.50;99.90
2190;DHT22;1101;51.056;7.262;2022-12-18T06:23:03;-4.50;99.90
2190;DHT22;1101;51.056;7.262;2022-12-18T06:25:31;-4.50;99.90
2190;DHT22;1101;51.056;7.262;2022-12-18T06:27:59;-4.50;99.90
2190;DHT22;1101;51.056;7.262;2022-12-18T06:30:27;-4.50;99.90
2190;DHT22;1101;51.056;7.262;2022-12-18T06:32:56;-4.50;99.90
2190;DHT22;1101;51.056;7.262;2022-12-18T06:35:24;-4.50;99.90
2190;DHT22;1101;51.056;7.262;2022-12-18T06:37:51;-4.50;99.90
2190;DHT22;1101;51.056;7.262;2022-12-18T06:40:19;-4.50;99.90
2190;DHT22;1101;51.056;7.262;2022-12-18T06:42:48;-4.50;99.90
2190;DHT22;1101;51.056;7.262;2022-12-18T06:45:15;-4.50;99.90
2190;DHT22;1101;51.056;7.262;2022-12-18T06:47:43;-4.50;99.90
2190;DHT22;1101;51.056;7.262;2022-12-18T06:50:13;-4.40;99.90
2190;DHT22;1101;51.056;7.262;2022-12-18T06:52:40;-4.40;99.90
2190;DHT22;1101;51.056;7.262;2022-12-18T06:55:11;-4.40;99.90
2190;DHT22;1101;51.056;7.262;2022-12-18T06:57:39;-4.40;99.90
2190;DHT22;1101;51.056;7.262;2022-12-18T07:00:07;-4.40;99.90
2190;DHT22;1101;51.056;7.262;2022-12-18T07:02:35;-4.40;99.90
2190;DHT22;1101;51.056;7.262;2022-12-18T07:05:04;-4.40;99.90
2190;DHT22;1101;51.056;7.262;2022-12-18T07:07:38;-4.40;99.90
2190;DHT22;1101;51.056;7.262;2022-12-18T07:10:06;-4.40;99.90
2190;DHT22;1101;51.056;7.262;2022-12-18T07:12:34;-4.50;99.90
2190;DHT22;1101;51.056;7.262;2022-12-18T07:15:03;-4.50;99.90
2190;DHT22;1101;51.056;7.262;2022-12-18T07:17:30;-4.50;99.90
2190;DHT22;1101;51.056;7.262;2022-12-18T07:19:58;-4.50;99.90
2190;DHT22;1101;51.056;7.262;2022-12-18T07:22:26;-4.50;99.90
2190;DHT22;1101;51.056;7.262;2022-12-18T07:24:55;-4.50;99.90
2190;DHT22;1101;51.056;7.262;2022-12-18T07:27:23;-4.50;99.90
2190;DHT22;1101;51.056;7.262;2022-12-18T07:29:51;-4.50;99.90
2190;DHT22;1101;51.056;7.262;2022-12-18T07:32:19;-4.50;99.90
2190;DHT22;1101;51.056;7.262;2022-12-18T07:34:47;-4.50;99.90
2190;DHT22;1101;51.056;7.262;2022-12-18T07:37:14;-4.50;99.90
2190;DHT22;1101;51.056;7.262;2022-12-18T07:39:42;-4.40;99.90
2190;DHT22;1101;51.056;7.262;2022-12-18T07:42:12;-4.40;99.90
2190;DHT22;1101;51.056;7.262;2022-12-18T07:44:58;-4.40;99.90
2190;DHT22;1101;51.056;7.262;2022-12-18T07:47:26;-4.40;99.90
2190;DHT22;1101;51.056;7.262;2022-12-18T07:49:55;-4.40;99.90
2190;DHT22;1101;51.056;7.262;2022-12-18T07:52:23;-4.30;99.90
2190;DHT22;1101;51.056;7.262;2022-12-18T07:54:52;-4.30;99.90
2190;DHT22;1101;51.056;7.262;2022-12-18T07:57:21;-4.30;99.90
2190;DHT22;1101;51.056;7.262;2022-12-18T08:00:10;-4.20;99.90
2190;DHT22;1101;51.056;7.262;2022-12-18T08:02:37;-4.20;99.90
2190;DHT22;1101;51.056;7.262;2022-12-18T08:05:06;-4.10;99.90
2190;DHT22;1101;51.056;7.262;2022-12-18T08:07:34;-4.10;99.90
2190;DHT22;1101;51.056;7.262;2022-12-18T08:10:02;-4.10;99.90
2190;DHT22;1101;51.056;7.262;2022-12-18T08:12:33;-4.00;99.90
2190;DHT22;1101;51.056;7.262;2022-12-18T08:15:00;-3.90;99.90
2190;DHT22;1101;51.056;7.262;2022-12-18T08:17:29;-3.90;99.90
2190;DHT22;1101;51.056;7.262;2022-12-18T08:19:57;-3.90;99.90
2190;DHT22;1101;51.056;7.262;2022-12-18T08:22:25;-3.90;99.90
2190;DHT22;1101;51.056;7.262;2022-12-18T08:24:52;-3.80;99.90
2190;DHT22;1101;51.056;7.262;2022-12-18T08:27:20;-3.70;99.90
2190;DHT22;1101;51.056;7.262;2022-12-18T08:29:57;-3.70;99.90
2190;DHT22;1101;51.056;7.262;2022-12-18T08:32:26;-3.60;99.90
2190;DHT22;1101;51.056;7.262;2022-12-18T08:34:54;-3.60;99.90
2190;DHT22;1101;51.056;7.262;2022-12-18T08:37:22;-3.50;99.90
2190;DHT22;1101;51.056;7.262;2022-12-18T08:39:49;-3.50;99.90
2190;DHT22;1101;51.056;7.262;2022-12-18T08:42:17;-3.50;99.90
2190;DHT22;1101;51.056;7.262;2022-12-18T08:45:05;-3.40;99.90
2190;DHT22;1101;51.056;7.262;2022-12-18T08:47:32;-3.40;99.90
2190;DHT22;1101;51.056;7.262;2022-12-18T08:50:00;-3.30;99.90
2190;DHT22;1101;51.056;7.262;2022-12-18T08:52:28;-3.30;99.90
2190;DHT22;1101;51.056;7.262;2022-12-18T08:54:56;-3.20;99.90
2190;DHT22;1101;51.056;7.262;2022-12-18T08:57:23;-3.20;99.90
2190;DHT22;1101;51.056;7.262;2022-12-18T08:59:51;-3.10;99.90
2190;DHT22;1101;51.056;7.262;2022-12-18T09:02:20;-3.10;99.90
2190;DHT22;1101;51.056;7.262;2022-12-18T09:04:48;-3.00;99.90
2190;DHT22;1101;51.056;7.262;2022-12-18T09:07:23;-3.00;99.90
2190;DHT22;1101;51.056;7.262;2022-12-18T09:09:50;-2.90;99.90
2190;DHT22;1101;51.056;7.262;2022-12-18T09:12:18;-2.80;99.90
2190;DHT22;1101;51.056;7.262;2022-12-18T09:14:46;-2.80;99.90
2190;DHT22;1101;51.056;7.262;2022-12-18T09:17:14;-2.70;99.90
2190;DHT22;1101;51.056;7.262;2022-12-18T09:19:43;-2.70;99.90
2190;DHT22;1101;51.056;7.262;2022-12-18T09:22:11;-2.60;99.90
2190;DHT22;1101;51.056;7.262;2022-12-18T09:24:39;-2.60;99.90
2190;DHT22;1101;51.056;7.262;2022-12-18T09:27:07;-2.50;99.90
2190;DHT22;1101;51.056;7.262;2022-12-18T09:29:34;-2.50;99.90
2190;DHT22;1101;51.056;7.262;2022-12-18T09:32:02;-2.50;99.90
2190;DHT22;1101;51.056;7.262;2022-12-18T09:34:30;-2.40;99.90
2190;DHT22;1101;51.056;7.262;2022-12-18T09:36:59;-2.40;99.90
2190;DHT22;1101;51.056;7.262;2022-12-18T09:39:27;-2.40;99.90
2190;DHT22;1101;51.056;7.262;2022-12-18T09:41:56;-2.30;99.90
2190;DHT22;1101;51.056;7.262;2022-12-18T09:44:26;-2.30;99.90
2190;DHT22;1101;51.056;7.262;2022-12-18T09:47:03;-2.20;99.90
2190;DHT22;1101;51.056;7.262;2022-12-18T09:49:39;-2.10;99.90
2190;DHT22;1101;51.056;7.262;2022-12-18T09:52:14;-2.10;99.90
2190;DHT22;1101;51.056;7.262;2022-12-18T09:54:46;-2.00;99.90
2190;DHT22;1101;51.056;7.262;2022-12-18T09:57:18;-2.00;99.90
2190;DHT22;1101;51.056;7.262;2022-12-18T09:59:51;-1.90;99.90
2190;DHT22;1101;51.056;7.262;2022-12-18T10:02:22;-1.90;99.90
2190;DHT22;1101;51.056;7.262;2022-12-18T10:05:05;-1.80;99.90
2190;DHT22;1101;51.056;7.262;2022-12-18T10:07:52;-1.80;99.90
2190;DHT22;1101;51.056;7.262;2022-12-18T10:10:37;-1.70;99.90
2190;DHT22;1101;51.056;7.262;2022-12-18T10:13:12;-1.70;99.90
2190;DHT22;1101;51.056;7.262;2022-12-18T10:15:52;-1.60;99.90
2190;DHT22;1101;51.056;7.262;2022-12-18T10:18:30;-1.60;99.90
2190;DHT22;1101;51.056;7.262;2022-12-18T10:21:05;-1.50;99.90
2190;DHT22;1101;51.056;7.262;2022-12-18T10:23:44;-1.50;99.90
2190;DHT22;1101;51.056;7.262;2022-12-18T10:26:16;-1.40;99.90
2190;DHT22;1101;51.056;7.262;2022-12-18T10:28:45;-1.40;99.90
2190;DHT22;1101;51.056;7.262;2022-12-18T10:31:16;-1.40;99.90
2190;DHT22;1101;51.056;7.262;2022-12-18T10:33:45;-1.30;99.90
2190;DHT22;1101;51.056;7.262;2022-12-18T10:36:13;-1.30;99.90
2190;DHT22;1101;51.056;7.262;2022-12-18T10:38:42;-1.20;99.90
2190;DHT22;1101;51.056;7.262;2022-12-18T10:41:24;-1.20;99.90
2190;DHT22;1101;51.056;7.262;2022-12-18T10:44:19;-1.10;99.90
2190;DHT22;1101;51.056;7.262;2022-12-18T10:46:49;-1.10;99.90
2190;DHT22;1101;51.056;7.262;2022-12-18T10:49:23;-1.00;99.90
2190;DHT22;1101;51.056;7.262;2022-12-18T10:52:05;-1.00;99.90
2190;DHT22;1101;51.056;7.262;2022-12-18T10:54:35;-0.90;99.90
2190;DHT22;1101;51.056;7.262;2022-12-18T10:57:18;-0.90;99.90
2190;DHT22;1101;51.056;7.262;2022-12-18T10:59:58;-0.80;99.90
2190;DHT22;1101;51.056;7.262;2022-12-18T11:02:28;-0.80;99.90
2190;DHT22;1101;51.056;7.262;2022-12-18T11:05:01;-0.70;99.90
2190;DHT22;1101;51.056;7.262;2022-12-18T11:07:47;-0.70;99.90
2190;DHT22;1101;51.056;7.262;2022-12-18T11:10:18;-0.60;99.90
2190;DHT22;1101;51.056;7.262;2022-12-18T11:12:46;-0.60;99.90
2190;DHT22;1101;51.056;7.262;2022-12-18T11:15:16;-0.60;99.90
2190;DHT22;1101;51.056;7.262;2022-12-18T11:17:48;-0.50;99.90
2190;DHT22;1101;51.056;7.262;2022-12-18T11:20:24;-0.50;99.90
2190;DHT22;1101;51.056;7.262;2022-12-18T11:22:56;-0.40;99.90
2190;DHT22;1101;51.056;7.262;2022-12-18T11:25:26;-0.40;99.90
2190;DHT22;1101;51.056;7.262;2022-12-18T11:28:01;-0.40;99.90
2190;DHT22;1101;51.056;7.262;2022-12-18T11:30:31;-0.30;99.90
2190;DHT22;1101;51.056;7.262;2022-12-18T11:33:04;-0.30;99.90
2190;DHT22;1101;51.056;7.262;2022-12-18T11:35:39;-0.20;99.90
2190;DHT22;1101;51.056;7.262;2022-12-18T11:38:18;-0.20;99.90
2190;DHT22;1101;51.056;7.262;2022-12-18T11:40:54;-0.10;99.90
2190;DHT22;1101;51.056;7.262;2022-12-18T11:43:27;-0.10;99.90
2190;DHT22;1101;51.056;7.262;2022-12-18T11:46:00;0.00;99.90
2190;DHT22;1101;51.056;7.262;2022-12-18T11:48:32;0.00;99.90
2190;DHT22;1101;51.056;7.262;2022-12-18T11:51:02;0.00;99.90
2190;DHT22;1101;51.056;7.262;2022-12-18T11:53:31;0.10;99.90
2190;DHT22;1101;51.056;7.262;2022-12-18T11:56:17;0.10;99.90
2190;DHT22;1101;51.056;7.262;2022-12-18T11:58:51;0.10;99.90
2190;DHT22;1101;51.056;7.262;2022-12-18T12:01:33;0.20;99.90
2190;DHT22;1101;51.056;7.262;2022-12-18T12:04:30;0.20;99.90
2190;DHT22;1101;51.056;7.262;2022-12-18T12:07:11;0.20;99.90
2190;DHT22;1101;51.056;7.262;2022-12-18T12:09:47;0.20;99.90
2190;DHT22;1101;51.056;7.262;2022-12-18T12:12:31;0.20;99.90
2190;DHT22;1101;51.056;7.262;2022-12-18T12:15:23;0.20;99.90
2190;DHT22;1101;51.056;7.262;2022-12-18T12:17:55;0.20;99.90
2190;DHT22;1101;51.056;7.262;2022-12-18T12:20:35;0.20;99.90
2190;DHT22;1101;51.056;7.262;2022-12-18T12:23:15;0.20;99.90
2190;DHT22;1101;51.056;7.262;2022-12-18T12:25:54;0.20;99.90
2190;DHT22;1101;51.056;7.262;2022-12-18T12:28:44;0.20;99.90
2190;DHT22;1101;51.056;7.262;2022-12-18T12:31:21;0.20;99.90
2190;DHT22;1101;51.056;7.262;2022-12-18T12:33:58;0.20;99.90
2190;DHT22;1101;51.056;7.262;2022-12-18T12:36:34;0.20;99.90
2190;DHT22;1101;51.056;7.262;2022-12-18T12:39:07;0.20;99.90
2190;DHT22;1101;51.056;7.262;2022-12-18T12:41:37;0.20;99.90
2190;DHT22;1101;51.056;7.262;2022-12-18T12:44:28;0.20;99.90
2190;DHT22;1101;51.056;7.262;2022-12-18T12:47:00;0.20;99.90
2190;DHT22;1101;51.056;7.262;2022-12-18T12:49:31;0.30;99.90
2190;DHT22;1101;51.056;7.262;2022-12-18T12:52:10;0.30;99.90
2190;DHT22;1101;51.056;7.262;2022-12-18T12:54:40;0.30;99.90
2190;DHT22;1101;51.056;7.262;2022-12-18T12:57:11;0.30;99.90
2190;DHT22;1101;51.056;7.262;2022-12-18T12:59:49;0.20;99.90
2190;DHT22;1101;51.056;7.262;2022-12-18T13:02:22;0.20;99.90
2190;DHT22;1101;51.056;7.262;2022-12-18T13:04:59;0.20;99.90
2190;DHT22;1101;51.056;7.262;2022-12-18T13:07:34;0.20;99.90
2190;DHT22;1101;51.056;7.262;2022-12-18T13:10:25;0.20;99.90
2190;DHT22;1101;51.056;7.262;2022-12-18T13:12:55;0.20;99.90
2190;DHT22;1101;51.056;7.262;2022-12-18T13:15:34;0.20;99.90
2190;DHT22;1101;51.056;7.262;2022-12-18T13:18:17;0.10;99.90
2190;DHT22;1101;51.056;7.262;2022-12-18T13:20:47;0.10;99.90
2190;DHT22;1101;51.056;7.262;2022-12-18T13:23:32;0.10;99.90
2190;DHT22;1101;51.056;7.262;2022-12-18T13:26:29;0.10;99.90
2190;DHT22;1101;51.056;7.262;2022-12-18T13:28:59;0.00;99.90
2190;DHT22;1101;51.056;7.262;2022-12-18T13:34:37;0.00;99.90
2190;DHT22;1101;51.056;7.262;2022-12-18T13:37:40;0.00;99.90
2190;DHT22;1101;51.056;7.262;2022-12-18T13:43:32;-0.10;99.90
2190;DHT22;1101;51.056;7.262;2022-12-18T13:46:03;-0.10;99.90
2190;DHT22;1101;51.056;7.262;2022-12-18T13:48:33;-0.10;99.90
2190;DHT22;1101;51.056;7.262;2022-12-18T13:51:06;-0.10;99.90
2190;DHT22;1101;51.056;7.262;2022-12-18T13:53:38;0.00;99.90
2190;DHT22;1101;51.056;7.262;2022-12-18T13:56:07;0.00;99.90
2190;DHT22;1101;51.056;7.262;2022-12-18T13:58:35;0.00;99.90
2190;DHT22;1101;51.056;7.262;2022-12-18T14:01:04;-0.10;99.90
2190;DHT22;1101;51.056;7.262;2022-12-18T14:03:32;-0.10;99.90
2190;DHT22;1101;51.056;7.262;2022-12-18T14:06:04;-0.10;99.90
2190;DHT22;1101;51.056;7.262;2022-12-18T14:08:37;-0.10;99.90
2190;DHT22;1101;51.056;7.262;2022-12-18T14:11:07;-0.20;99.90
2190;DHT22;1101;51.056;7.262;2022-12-18T14:13:47;-0.20;99.90
2190;DHT22;1101;51.056;7.262;2022-12-18T14:16:17;-0.20;99.90
2190;DHT22;1101;51.056;7.262;2022-12-18T14:18:48;-0.30;99.90
2190;DHT22;1101;51.056;7.262;2022-12-18T14:21:21;-0.30;99.90
2190;DHT22;1101;51.056;7.262;2022-12-18T14:24:03;-0.40;99.90
2190;DHT22;1101;51.056;7.262;2022-12-18T14:26:32;-0.40;99.90
2190;DHT22;1101;51.056;7.262;2022-12-18T14:29:16;-0.40;99.90
2190;DHT22;1101;51.056;7.262;2022-12-18T14:32:04;-0.40;99.90
2190;DHT22;1101;51.056;7.262;2022-12-18T14:34:37;-0.50;99.90
2190;DHT22;1101;51.056;7.262;2022-12-18T14:37:09;-0.50;99.90
2190;DHT22;1101;51.056;7.262;2022-12-18T14:39:37;-0.60;99.90
2190;DHT22;1101;51.056;7.262;2022-12-18T14:42:05;-0.60;99.90
2190;DHT22;1101;51.056;7.262;2022-12-18T14:44:33;-0.60;99.90
2190;DHT22;1101;51.056;7.262;2022-12-18T14:47:21;-0.60;99.90
2190;DHT22;1101;51.056;7.262;2022-12-18T14:49:49;-0.70;99.90
2190;DHT22;1101;51.056;7.262;2022-12-18T14:52:42;-0.70;99.90
2190;DHT22;1101;51.056;7.262;2022-12-18T14:55:35;-0.80;99.90
2190;DHT22;1101;51.056;7.262;2022-12-18T14:58:27;-0.80;99.90
2190;DHT22;1101;51.056;7.262;2022-12-18T15:01:21;-0.90;99.90
2190;DHT22;1101;51.056;7.262;2022-12-18T15:04:25;-0.90;99.90
2190;DHT22;1101;51.056;7.262;2022-12-18T15:07:19;-0.90;99.90
2190;DHT22;1101;51.056;7.262;2022-12-18T15:10:16;-0.90;99.90
2190;DHT22;1101;51.056;7.262;2022-12-18T15:13:15;-0.90;99.90
2190;DHT22;1101;51.056;7.262;2022-12-18T15:16:12;-1.00;99.90
2190;DHT22;1101;51.056;7.262;2022-12-18T18:14:17;-1.80;99.90
2190;DHT22;1101;51.056;7.262;2022-12-18T18:16:47;-1.80;99.90
2190;DHT22;1101;51.056;7.262;2022-12-18T18:19:17;-1.80;99.90
2190;DHT22;1101;51.056;7.262;2022-12-18T18:21:47;-1.80;99.90
2190;DHT22;1101;51.056;7.262;2022-12-18T18:24:16;-1.80;99.90
2190;DHT22;1101;51.056;7.262;2022-12-18T18:26:45;-1.80;99.90
2190;DHT22;1101;51.056;7.262;2022-12-18T18:29:14;-1.80;99.90
2190;DHT22;1101;51.056;7.262;2022-12-18T18:31:44;-1.80;99.90
2190;DHT22;1101;51.056;7.262;2022-12-18T18:34:14;-1.80;99.90
2190;DHT22;1101;51.056;7.262;2022-12-18T18:36:42;-1.80;99.90
2190;DHT22;1101;51.056;7.262;2022-12-18T18:39:11;-1.80;99.90
2190;DHT22;1101;51.056;7.262;2022-12-18T18:41:38;-1.80;99.90
2190;DHT22;1101;51.056;7.262;2022-12-18T18:44:09;-1.90;99.90
2190;DHT22;1101;51.056;7.262;2022-12-18T18:46:37;-1.90;99.90
2190;DHT22;1101;51.056;7.262;2022-12-18T18:49:06;-1.90;99.90
2190;DHT22;1101;51.056;7.262;2022-12-18T18:51:34;-1.90;99.90
2190;DHT22;1101;51.056;7.262;2022-12-18T18:54:02;-1.80;99.90
2190;DHT22;1101;51.056;7.262;2022-12-18T18:56:30;-1.90;99.90
2190;DHT22;1101;51.056;7.262;2022-12-18T18:59:17;-1.90;99.90
2190;DHT22;1101;51.056;7.262;2022-12-18T19:01:57;-1.90;99.90
2190;DHT22;1101;51.056;7.262;2022-12-18T19:04:31;-1.80;99.90
2190;DHT22;1101;51.056;7.262;2022-12-18T19:06:59;-1.80;99.90
2190;DHT22;1101;51.056;7.262;2022-12-18T19:09:27;-1.70;99.90
2190;DHT22;1101;51.056;7.262;2022-12-18T19:11:55;-1.80;99.90
2190;DHT22;1101;51.056;7.262;2022-12-18T19:14:40;-1.80;99.90
2190;DHT22;1101;51.056;7.262;2022-12-18T19:17:09;-1.80;99.90
2190;DHT22;1101;51.056;7.262;2022-12-18T19:19:38;-1.80;99.90
2190;DHT22;1101;51.056;7.262;2022-12-18T19:22:06;-1.80;99.90
2190;DHT22;1101;51.056;7.262;2022-12-18T19:24:34;-1.80;99.90
2190;DHT22;1101;51.056;7.262;2022-12-18T19:27:02;-1.80;99.90
2190;DHT22;1101;51.056;7.262;2022-12-18T19:29:30;-1.80;99.90
2190;DHT22;1101;51.056;7.262;2022-12-18T19:34:37;-1.80;99.90
2190;DHT22;1101;51.056;7.262;2022-12-18T19:37:05;-1.80;99.90
2190;DHT22;1101;51.056;7.262;2022-12-18T19:39:33;-1.80;99.90
2190;DHT22;1101;51.056;7.262;2022-12-18T19:42:01;-1.80;99.90
2190;DHT22;1101;51.056;7.262;2022-12-18T19:44:29;-1.80;99.90